Map

Track Data

SID SEASON NUMBER BASIN SUBBASIN NAME ISO_TIME NATURE LAT LON WMO_WIND WMO_PRES WMO_AGENCY TRACK_TYPE DIST2LAND LANDFALL IFLAG USA_AGENCY USA_ATCF_ID USA_LAT USA_LON USA_RECORD USA_STATUS USA_WIND USA_PRES USA_SSHS USA_R34_NE USA_R34_SE USA_R34_SW USA_R34_NW USA_R50_NE USA_R50_SE USA_R50_SW USA_R50_NW USA_R64_NE USA_R64_SE USA_R64_SW USA_R64_NW USA_POCI USA_ROCI USA_RMW USA_EYE TOKYO_LAT TOKYO_LON TOKYO_GRADE TOKYO_WIND TOKYO_PRES TOKYO_R50_DIR TOKYO_R50_LONG TOKYO_R50_SHORT TOKYO_R30_DIR TOKYO_R30_LONG TOKYO_R30_SHORT TOKYO_LAND CMA_LAT CMA_LON CMA_CAT CMA_WIND CMA_PRES HKO_LAT HKO_LON HKO_CAT HKO_WIND HKO_PRES NEWDELHI_LAT NEWDELHI_LON NEWDELHI_GRADE NEWDELHI_WIND NEWDELHI_PRES NEWDELHI_CI NEWDELHI_DP NEWDELHI_POCI REUNION_LAT REUNION_LON REUNION_TYPE REUNION_WIND REUNION_PRES REUNION_TNUM REUNION_CI REUNION_RMW REUNION_R34_NE REUNION_R34_SE REUNION_R34_SW REUNION_R34_NW REUNION_R50_NE REUNION_R50_SE REUNION_R50_SW REUNION_R50_NW REUNION_R64_NE REUNION_R64_SE REUNION_R64_SW REUNION_R64_NW BOM_LAT BOM_LON BOM_TYPE BOM_WIND BOM_PRES BOM_TNUM BOM_CI BOM_RMW BOM_R34_NE BOM_R34_SE BOM_R34_SW BOM_R34_NW BOM_R50_NE BOM_R50_SE BOM_R50_SW BOM_R50_NW BOM_R64_NE BOM_R64_SE BOM_R64_SW BOM_R64_NW BOM_ROCI BOM_POCI BOM_EYE BOM_POS_METHOD BOM_PRES_METHOD NADI_LAT NADI_LON NADI_CAT NADI_WIND NADI_PRES WELLINGTON_LAT WELLINGTON_LON WELLINGTON_WIND WELLINGTON_PRES DS824_LAT DS824_LON DS824_STAGE DS824_WIND DS824_PRES TD9636_LAT TD9636_LON TD9636_STAGE TD9636_WIND TD9636_PRES TD9635_LAT TD9635_LON TD9635_WIND TD9635_PRES TD9635_ROCI NEUMANN_LAT NEUMANN_LON NEUMANN_CLASS NEUMANN_WIND NEUMANN_PRES MLC_LAT MLC_LON MLC_CLASS MLC_WIND MLC_PRES USA_GUST BOM_GUST BOM_GUST_PER REUNION_GUST REUNION_GUST_PER USA_SEAHGT USA_SEARAD_NE USA_SEARAD_SE USA_SEARAD_SW USA_SEARAD_NW STORM_SPEED STORM_DIR
1894265N17127 1894 42 WP MM NOT_NAMED 1894-09-21 16:00:00 NR 16.7000 126.500 main 383 383 __________O___ -1 16.7000 126.500 7 10 325
1894265N17127 1894 42 WP MM NOT_NAMED 1894-09-21 18:00:00 NR 16.9657 126.300 main 398 373 __________P___ -1 16.9657 126.300 7 10 323
1894265N17127 1894 42 WP MM NOT_NAMED 1894-09-21 21:00:00 NR 17.3521 125.987 main 374 338 __________P___ -1 17.3521 125.987 7 10 320
1894265N17127 1894 42 WP MM NOT_NAMED 1894-09-22 00:00:00 NR 17.7072 125.642 main 338 306 __________P___ -1 17.7072 125.642 7 10 313
1894265N17127 1894 42 WP MM NOT_NAMED 1894-09-22 03:00:00 NR 18.0125 125.246 main 306 296 __________P___ -1 18.0125 125.246 7 10 307
1894265N17127 1894 42 WP MM NOT_NAMED 1894-09-22 04:00:00 NR 18.1000 125.100 main 296 263 __________O___ -1 18.1000 125.100 3 10 299
1894265N17127 1894 42 WP MM NOT_NAMED 1894-09-22 06:00:00 NR 18.2511 124.784 main 263 211 __________P___ -1 18.2511 124.784 3 10 292
1894265N17127 1894 42 WP MM NOT_NAMED 1894-09-22 09:00:00 NR 18.4274 124.267 main 211 149 __________P___ -1 18.4274 124.267 3 11 287
1894265N17127 1894 42 WP MM NOT_NAMED 1894-09-22 12:00:00 NR 18.5596 123.722 main 149 100 __________P___ -1 18.5596 123.722 3 11 283
1894265N17127 1894 42 WP MM NOT_NAMED 1894-09-22 15:00:00 NR 18.6666 123.177 main 100 81 __________P___ -1 18.6666 123.177 3 10 282
1894265N17127 1894 42 WP MM NOT_NAMED 1894-09-22 16:00:00 NR 18.7000 123.000 main 81 61 __________O___ -1 18.7000 123.000 4 10 284
1894265N17127 1894 42 WP MM NOT_NAMED 1894-09-22 18:00:00 NR 18.7802 122.677 main 61 45 __________P___ -1 18.7802 122.677 4 9 284
1894265N17127 1894 42 WP MM NOT_NAMED 1894-09-22 21:00:00 NR 18.8883 122.205 main 55 55 __________P___ -1 18.8883 122.205 4 9 283
1894265N17127 1894 42 WP MM NOT_NAMED 1894-09-23 00:00:00 NR 18.9846 121.738 main 64 55 __________P___ -1 18.9846 121.738 4 9 282
1894265N17127 1894 42 WP MM NOT_NAMED 1894-09-23 03:00:00 NR 19.0722 121.262 main 67 59 __________P___ -1 19.0722 121.262 4 9 281
1894265N17127 1894 42 WP MM NOT_NAMED 1894-09-23 04:00:00 NR 19.1000 121.100 main 59 55 __________O___ -1 19.1000 121.100 4 10 279
1894265N17127 1894 42 WP MM NOT_NAMED 1894-09-23 06:00:00 NR 19.1503 120.761 main 67 67 __________P___ -1 19.1503 120.761 4 10 278
1894265N17127 1894 42 WP MM NOT_NAMED 1894-09-23 09:00:00 NR 19.2194 120.240 main 92 92 __________P___ -1 19.2194 120.240 4 10 278
1894265N17127 1894 42 WP MM NOT_NAMED 1894-09-23 12:00:00 NR 19.2893 119.710 main 138 138 __________P___ -1 19.2893 119.710 4 10 279
1894265N17127 1894 42 WP MM NOT_NAMED 1894-09-23 15:00:00 NR 19.3694 119.177 main 184 193 __________P___ -1 19.3694 119.177 4 10 279
1894265N17127 1894 42 WP MM NOT_NAMED 1894-09-23 16:00:00 NR 19.4000 119.000 main 202 202 __________O___ -1 19.4000 119.000 4 10 280
1894265N17127 1894 42 WP MM NOT_NAMED 1894-09-23 18:00:00 NR 19.4560 118.644 main 243 243 __________P___ -1 19.4560 118.644 4 10 280
1894265N17127 1894 42 WP MM NOT_NAMED 1894-09-23 21:00:00 NR 19.5524 118.111 main 295 295 __________P___ -1 19.5524 118.111 4 10 282
1894265N17127 1894 42 WP MM NOT_NAMED 1894-09-24 00:00:00 NR 19.6748 117.583 main 347 347 __________P___ -1 19.6748 117.583 4 10 286
1894265N17127 1894 42 WP MM NOT_NAMED 1894-09-24 03:00:00 NR 19.8357 117.068 main 351 333 __________P___ -1 19.8357 117.068 4 10 289
1894265N17127 1894 42 WP MM NOT_NAMED 1894-09-24 04:00:00 NR 19.9000 116.900 main 333 302 __________O___ -1 19.9000 116.900 4 11 295
1894265N17127 1894 42 WP MM NOT_NAMED 1894-09-24 06:00:00 NR 20.0594 116.559 main 302 270 __________P___ -1 20.0594 116.559 4 11 299
1894265N17127 1894 42 WP MM NOT_NAMED 1894-09-24 09:00:00 NR 20.3368 116.060 main 270 224 __________P___ -1 20.3368 116.060 4 11 302
1894265N17127 1894 42 WP MM NOT_NAMED 1894-09-24 12:00:00 NR 20.6322 115.584 main 224 177 __________P___ -1 20.6322 115.584 4 10 304
1894265N17127 1894 42 WP MM NOT_NAMED 1894-09-24 15:00:00 NR 20.9143 115.139 main 177 162 __________P___ -1 20.9143 115.139 4 10 304
1894265N17127 1894 42 WP MM NOT_NAMED 1894-09-24 16:00:00 NR 21.0000 115.000 main 162 140 __________O___ -1 21.0000 115.000 4 9 301
1894265N17127 1894 42 WP MM NOT_NAMED 1894-09-24 18:00:00 NR 21.1337 114.743 main 140 112 __________P___ -1 21.1337 114.743 4 8 298
1894265N17127 1894 42 WP MM NOT_NAMED 1894-09-24 21:00:00 NR 21.3093 114.389 main 112 91 __________P___ -1 21.3093 114.389 4 7 298
1894265N17127 1894 42 WP MM NOT_NAMED 1894-09-25 00:00:00 NR 21.4717 114.054 main 91 69 __________P___ -1 21.4717 114.054 4 7 298
1894265N17127 1894 42 WP MM NOT_NAMED 1894-09-25 03:00:00 NR 21.6396 113.717 main 69 54 __________P___ -1 21.6396 113.717 4 7 298
1894265N17127 1894 42 WP MM NOT_NAMED 1894-09-25 04:00:00 NR 21.7000 113.600 main 54 35 __________O___ -1 21.7000 113.600 4 8 300
1894265N17127 1894 42 WP MM NOT_NAMED 1894-09-25 06:00:00 NR 21.8331 113.352 main 35 0 __________P___ -1 21.8331 113.352 4 8 300
1894265N17127 1894 42 WP MM NOT_NAMED 1894-09-25 09:00:00 NR 22.0454 112.968 main 0 0 __________P___ -1 22.0454 112.968 4 9 301
1894265N17127 1894 42 WP MM NOT_NAMED 1894-09-25 12:00:00 NR 22.2728 112.567 main 0 0 __________P___ -1 22.2728 112.567 4 9 302
1894265N17127 1894 42 WP MM NOT_NAMED 1894-09-25 15:00:00 NR 22.5156 112.146 main 0 0 __________P___ -1 22.5156 112.146 4 9 302
1894265N17127 1894 42 WP MM NOT_NAMED 1894-09-25 16:00:00 NR 22.6000 112.000 main 0 0 __________O___ -1 22.6000 112.000 4 10 302
1894265N17127 1894 42 WP MM NOT_NAMED 1894-09-25 18:00:00 NR 22.7736 111.701 main 0 0 __________P___ -1 22.7736 111.701 4 10 302
1894265N17127 1894 42 WP MM NOT_NAMED 1894-09-25 21:00:00 NR 23.0441 111.236 main 0 0 __________P___ -1 23.0441 111.236 4 10 302
1894265N17127 1894 42 WP MM NOT_NAMED 1894-09-26 00:00:00 NR 23.3229 110.755 main 0 0 __________P___ -1 23.3229 110.755 4 11 302
1894265N17127 1894 42 WP MM NOT_NAMED 1894-09-26 03:00:00 NR 23.6056 110.265 main 0 0 __________P___ -1 23.6056 110.265 4 11 302
1894265N17127 1894 42 WP MM NOT_NAMED 1894-09-26 04:00:00 NR 23.7000 110.100 main 0 __________O___ -1 23.7000 110.100 4 11 301

Digital Typhoon Data and Search

About IBTrACS Database

This database is a web-friendly format of International Best Track Archive for Climate Stewardship (IBTrACS), a global best track data archive curated by NOAA dating back to 1842.

Updated: 2021-11-26